Time;durP1;ratioP1;P1;durP2;ratioP2;P2;SDS_P1;SDS_P2;PMS_P1;PMS_P2;Temp;Humidity;BMP_temperature;BMP_pressure;BME280_temperature;BME280_humidity;BME280_pressure;Samples;Min_cycle;Max_cycle;Signal;HPM_P1;HPM_P2
2023/04/10 00:00:22;;;;;;;86.30;46.70;;;;;;;;;;107677;1250;24193;-79
2023/04/10 00:03:08;;;;;;;84.00;48.50;;;;;;;;;;107529;1250;26388;-79
2023/04/10 00:05:35;;;;;;;82.30;47.40;;;;;;;;;;107565;1250;24211;-78
2023/04/10 00:08:02;;;;;;;91.70;47.20;;;;;;;;;;107642;1250;23262;-78
2023/04/10 00:10:30;;;;;;;82.20;44.10;;;;;;;;;;107575;1249;25384;-78
2023/04/10 00:12:57;;;;;;;79.00;43.80;;;;;;;;;;107560;1250;25375;-79
2023/04/10 00:15:24;;;;;;;78.40;44.30;;;;;;;;;;107528;1249;25869;-78
2023/04/10 00:17:53;;;;;;;77.20;43.00;;;;;;;;;;107546;1250;22570;-80
2023/04/10 00:20:21;;;;;;;86.80;49.60;;;;;;;;;;107536;1249;25468;-78
2023/04/10 00:22:48;;;;;;;78.10;44.90;;;;;;;;;;110879;1249;22316;-79
2023/04/10 00:25:14;;;;;;;72.60;42.20;;;;;;;;;;107988;1249;22527;-79
2023/04/10 00:27:40;;;;;;;72.60;39.40;;;;;;;;;;110348;1249;22486;-78
2023/04/10 00:30:07;;;;;;;72.40;41.20;;;;;;;;;;110999;1248;22013;-80
2023/04/10 00:32:33;;;;;;;73.00;39.50;;;;;;;;;;110693;1249;23035;-80
2023/04/10 00:35:00;;;;;;;72.80;38.50;;;;;;;;;;107718;1249;22558;-80
2023/04/10 00:37:27;;;;;;;68.40;38.80;;;;;;;;;;107658;1250;25507;-80
2023/04/10 00:39:53;;;;;;;68.70;39.10;;;;;;;;;;107667;1250;22523;-79
2023/04/10 00:42:20;;;;;;;63.40;36.80;;;;;;;;;;107674;1250;23106;-79
2023/04/10 00:44:46;;;;;;;74.60;41.10;;;;;;;;;;107661;1251;22995;-80
2023/04/10 00:47:13;;;;;;;70.10;40.10;;;;;;;;;;107673;1250;24116;-79
2023/04/10 00:49:40;;;;;;;66.60;36.10;;;;;;;;;;107666;1252;25530;-80
2023/04/10 00:52:07;;;;;;;69.90;37.70;;;;;;;;;;108178;1250;24216;-78
2023/04/10 00:54:35;;;;;;;67.20;37.30;;;;;;;;;;108207;1249;23791;-80
2023/04/10 00:57:02;;;;;;;71.80;41.10;;;;;;;;;;110987;1248;22178;-80
2023/04/10 00:59:28;;;;;;;74.40;43.80;;;;;;;;;;109554;1249;22590;-80
2023/04/10 01:01:54;;;;;;;79.00;43.00;;;;;;;;;;108139;1247;22684;-79
2023/04/10 01:04:21;;;;;;;70.20;41.70;;;;;;;;;;108333;1247;25236;-79
2023/04/10 01:07:06;;;;;;;79.40;42.80;;;;;;;;;;108346;1247;22591;-80
2023/04/10 01:09:52;;;;;;;75.40;42.80;;;;;;;;;;108339;1247;24273;-79
2023/04/10 01:12:31;;;;;;;74.50;43.70;;;;;;;;;;108324;1247;22521;-80
2023/04/10 01:15:01;;;;;;;85.60;47.80;;;;;;;;;;107844;1253;22636;-78
2023/04/10 01:17:33;;;;;;;91.00;51.20;;;;;;;;;;107610;1250;25334;-78
2023/04/10 01:20:12;;;;;;;89.20;51.50;;;;;;;;;;107784;1248;25229;-80
2023/04/10 01:23:01;;;;;;;94.10;52.90;;;;;;;;;;107811;1247;22532;-80
2023/04/10 01:25:42;;;;;;;79.50;49.50;;;;;;;;;;107805;1247;22541;-79
2023/04/10 01:28:11;;;;;;;85.10;48.30;;;;;;;;;;107634;1250;22570;-80
2023/04/10 01:30:38;;;;;;;95.90;54.90;;;;;;;;;;107685;1250;22537;-78
2023/04/10 01:33:05;;;;;;;85.10;50.60;;;;;;;;;;107765;1248;22653;-78
2023/04/10 01:35:31;;;;;;;81.10;45.30;;;;;;;;;;107729;1249;26502;-80
2023/04/10 01:37:58;;;;;;;84.70;46.20;;;;;;;;;;107772;1250;22557;-78
2023/04/10 01:40:25;;;;;;;76.70;40.60;;;;;;;;;;107631;1249;22784;-78
2023/04/10 01:42:52;;;;;;;69.80;39.90;;;;;;;;;;107662;1250;25274;-80
2023/04/10 01:45:19;;;;;;;64.00;39.10;;;;;;;;;;107717;1248;25895;-79
2023/04/10 01:47:45;;;;;;;85.70;48.70;;;;;;;;;;107710;1249;25179;-80
2023/04/10 01:50:12;;;;;;;72.00;42.90;;;;;;;;;;107699;1250;24219;-80
2023/04/10 01:52:38;;;;;;;68.40;41.90;;;;;;;;;;107673;1250;26190;-80
2023/04/10 01:55:05;;;;;;;74.80;44.50;;;;;;;;;;107703;1250;22581;-79
2023/04/10 01:57:31;;;;;;;73.40;42.50;;;;;;;;;;107579;1250;25496;-78
2023/04/10 01:59:58;;;;;;;73.10;41.50;;;;;;;;;;107428;1249;151075;-79
2023/04/10 02:02:24;;;;;;;67.60;38.90;;;;;;;;;;107666;1248;22537;-79
2023/04/10 02:04:51;;;;;;;64.40;38.40;;;;;;;;;;107659;1248;24349;-80
2023/04/10 02:07:19;;;;;;;66.30;38.60;;;;;;;;;;107713;1250;25386;-78
2023/04/10 02:09:47;;;;;;;66.80;36.40;;;;;;;;;;107627;1249;22581;-80
2023/04/10 02:12:21;;;;;;;66.60;38.00;;;;;;;;;;107651;1250;24215;-80
2023/04/10 02:14:47;;;;;;;75.10;43.40;;;;;;;;;;107636;1249;22951;-80
2023/04/10 02:17:15;;;;;;;76.80;43.00;;;;;;;;;;107666;1250;24226;-78
2023/04/10 02:19:42;;;;;;;77.10;43.00;;;;;;;;;;107629;1249;22641;-80
2023/04/10 02:22:08;;;;;;;71.90;40.30;;;;;;;;;;107730;1249;22545;-78
2023/04/10 02:24:34;;;;;;;85.60;48.80;;;;;;;;;;107689;1248;24225;-80
2023/04/10 02:27:01;;;;;;;79.00;46.60;;;;;;;;;;107680;1249;22665;-79
2023/04/10 02:29:27;;;;;;;74.90;45.00;;;;;;;;;;107690;1250;22762;-79
2023/04/10 02:31:53;;;;;;;77.70;44.80;;;;;;;;;;107675;1249;22572;-79
2023/04/10 02:34:20;;;;;;;84.30;48.60;;;;;;;;;;107680;1252;22541;-79
2023/04/10 02:36:46;;;;;;;86.70;50.30;;;;;;;;;;107675;1250;25391;-79
2023/04/10 02:39:12;;;;;;;83.60;52.10;;;;;;;;;;107631;1250;22525;-79
2023/04/10 02:41:39;;;;;;;86.50;51.20;;;;;;;;;;107549;1249;22646;-79
2023/04/10 02:44:05;;;;;;;83.70;48.80;;;;;;;;;;107562;1249;25388;-78
2023/04/10 02:46:32;;;;;;;77.80;47.60;;;;;;;;;;107601;1250;24248;-79
2023/04/10 02:48:58;;;;;;;86.60;51.00;;;;;;;;;;107646;1250;24337;-78
2023/04/10 02:51:25;;;;;;;86.30;53.80;;;;;;;;;;107698;1250;22543;-78
2023/04/10 02:53:51;;;;;;;88.20;54.80;;;;;;;;;;107734;1249;25335;-79
2023/04/10 02:56:18;;;;;;;91.60;52.70;;;;;;;;;;107664;1251;22942;-78
2023/04/10 02:58:46;;;;;;;84.10;51.30;;;;;;;;;;107530;1249;22539;-79
2023/04/10 03:01:12;;;;;;;84.60;47.60;;;;;;;;;;107606;1250;22651;-78
2023/04/10 03:03:39;;;;;;;77.20;44.50;;;;;;;;;;107659;1249;23680;-79
2023/04/10 03:06:06;;;;;;;81.10;47.10;;;;;;;;;;108656;1249;22274;-80
2023/04/10 03:08:32;;;;;;;80.60;44.70;;;;;;;;;;107985;1250;25274;-78
2023/04/10 03:10:58;;;;;;;77.50;44.10;;;;;;;;;;107680;1249;22530;-79
2023/04/10 03:13:25;;;;;;;73.30;45.30;;;;;;;;;;107630;1249;24359;-78
2023/04/10 03:15:51;;;;;;;107.60;60.20;;;;;;;;;;107628;1249;24207;-78
2023/04/10 03:18:18;;;;;;;100.70;56.10;;;;;;;;;;107647;1248;23211;-79
2023/04/10 03:20:44;;;;;;;91.30;51.70;;;;;;;;;;110440;1249;22327;-80
2023/04/10 03:23:10;;;;;;;91.90;48.00;;;;;;;;;;110948;1249;22317;-80
2023/04/10 03:25:37;;;;;;;92.00;52.30;;;;;;;;;;110995;1248;22477;-79
2023/04/10 03:28:03;;;;;;;83.40;46.90;;;;;;;;;;110993;1249;22310;-78
2023/04/10 03:30:29;;;;;;;94.90;54.30;;;;;;;;;;110962;1248;22119;-77
2023/04/10 03:32:56;;;;;;;90.60;52.40;;;;;;;;;;111038;1248;22945;-78
2023/04/10 03:35:22;;;;;;;87.00;52.60;;;;;;;;;;110940;1249;22392;-77
2023/04/10 03:37:48;;;;;;;80.70;43.80;;;;;;;;;;110941;1250;22467;-77
2023/04/10 03:40:15;;;;;;;83.00;49.00;;;;;;;;;;111032;1248;22833;-77
2023/04/10 03:42:41;;;;;;;72.30;41.70;;;;;;;;;;110999;1249;22221;-76
2023/04/10 03:45:07;;;;;;;76.60;42.80;;;;;;;;;;110933;1249;22364;-78
2023/04/10 03:47:34;;;;;;;68.30;40.00;;;;;;;;;;109445;1249;23001;-79
2023/04/10 03:50:00;;;;;;;70.10;43.90;;;;;;;;;;107691;1249;24340;-79
2023/04/10 03:52:27;;;;;;;73.90;43.60;;;;;;;;;;107677;1250;24190;-79
2023/04/10 03:54:53;;;;;;;78.10;43.40;;;;;;;;;;107654;1248;22524;-78
2023/04/10 03:57:20;;;;;;;76.30;42.60;;;;;;;;;;107688;1249;24227;-77
2023/04/10 03:59:46;;;;;;;73.90;41.70;;;;;;;;;;107636;1250;22869;-78
2023/04/10 04:02:13;;;;;;;97.30;49.70;;;;;;;;;;107801;1247;24272;-79
2023/04/10 04:04:39;;;;;;;92.40;51.30;;;;;;;;;;107787;1247;27235;-78
2023/04/10 04:07:05;;;;;;;82.30;49.50;;;;;;;;;;107639;1247;22514;-78
2023/04/10 04:09:32;;;;;;;88.60;55.20;;;;;;;;;;107796;1247;24205;-78
2023/04/10 04:11:58;;;;;;;73.30;45.90;;;;;;;;;;107807;1247;22612;-79
2023/04/10 04:14:24;;;;;;;77.30;44.70;;;;;;;;;;107769;1247;24272;-78
2023/04/10 04:16:51;;;;;;;70.00;42.40;;;;;;;;;;107887;1248;22521;-79
2023/04/10 04:19:17;;;;;;;73.40;42.60;;;;;;;;;;111058;1247;22238;-80
2023/04/10 04:21:43;;;;;;;65.60;41.30;;;;;;;;;;107944;1253;22560;-79
2023/04/10 04:24:10;;;;;;;77.30;45.60;;;;;;;;;;107792;1248;22512;-78
2023/04/10 04:26:36;;;;;;;79.80;47.30;;;;;;;;;;107785;1248;22869;-78
2023/04/10 04:29:02;;;;;;;76.40;44.90;;;;;;;;;;107752;1248;25221;-78
2023/04/10 04:31:31;;;;;;;79.60;45.90;;;;;;;;;;107669;1249;22531;-80
2023/04/10 04:33:58;;;;;;;86.80;49.60;;;;;;;;;;107651;1250;22520;-79
2023/04/10 04:36:25;;;;;;;79.20;47.40;;;;;;;;;;109554;1252;24281;-78
2023/04/10 04:38:51;;;;;;;70.10;42.30;;;;;;;;;;107678;1249;25387;-78
2023/04/10 04:41:18;;;;;;;73.50;43.90;;;;;;;;;;107692;1249;25200;-78
2023/04/10 04:43:46;;;;;;;77.50;48.20;;;;;;;;;;107624;1249;23008;-79
2023/04/10 04:46:12;;;;;;;75.40;44.60;;;;;;;;;;108584;1250;22540;-78
2023/04/10 04:48:38;;;;;;;88.40;47.80;;;;;;;;;;107617;1248;25346;-79
2023/04/10 04:51:05;;;;;;;77.60;45.40;;;;;;;;;;107651;1249;22594;-78
2023/04/10 04:53:32;;;;;;;71.20;44.90;;;;;;;;;;107670;1250;22535;-79
2023/04/10 04:55:58;;;;;;;82.80;46.80;;;;;;;;;;107597;1249;22545;-78
2023/04/10 04:58:25;;;;;;;76.40;45.50;;;;;;;;;;107456;1250;25342;-79
2023/04/10 05:00:51;;;;;;;79.60;46.40;;;;;;;;;;107576;1250;25342;-78
2023/04/10 05:03:18;;;;;;;81.80;47.20;;;;;;;;;;107621;1248;24235;-78
2023/04/10 05:05:44;;;;;;;73.00;43.10;;;;;;;;;;107661;1249;22992;-79
2023/04/10 05:08:11;;;;;;;73.40;43.70;;;;;;;;;;107692;1252;23324;-78
2023/04/10 05:10:37;;;;;;;69.20;41.60;;;;;;;;;;107661;1250;22478;-79
2023/04/10 05:13:03;;;;;;;68.20;39.60;;;;;;;;;;107614;1249;24257;-79
2023/04/10 05:15:30;;;;;;;67.30;39.40;;;;;;;;;;107662;1252;22471;-78
2023/04/10 05:17:56;;;;;;;69.00;39.60;;;;;;;;;;107634;1250;22606;-78
2023/04/10 05:20:22;;;;;;;64.10;37.90;;;;;;;;;;107675;1250;22544;-79
2023/04/10 05:22:49;;;;;;;78.50;44.60;;;;;;;;;;107615;1250;22988;-78
2023/04/10 05:25:15;;;;;;;83.70;46.40;;;;;;;;;;107634;1250;24827;-79
2023/04/10 05:27:41;;;;;;;94.70;51.60;;;;;;;;;;107640;1250;25496;-79
2023/04/10 05:30:08;;;;;;;100.90;58.80;;;;;;;;;;107637;1252;25493;-78
2023/04/10 05:32:34;;;;;;;108.40;65.20;;;;;;;;;;107618;1250;24358;-79
2023/04/10 05:35:01;;;;;;;98.00;59.90;;;;;;;;;;107620;1249;25510;-78
2023/04/10 05:37:27;;;;;;;98.30;59.60;;;;;;;;;;107616;1249;22523;-79
2023/04/10 05:39:53;;;;;;;102.40;60.10;;;;;;;;;;107631;1250;25193;-79
2023/04/10 05:42:20;;;;;;;103.40;60.20;;;;;;;;;;107643;1250;22508;-78
2023/04/10 05:44:46;;;;;;;99.60;58.80;;;;;;;;;;107669;1250;25359;-79
2023/04/10 05:47:12;;;;;;;98.50;59.50;;;;;;;;;;107643;1250;26405;-79
2023/04/10 05:49:39;;;;;;;96.50;55.70;;;;;;;;;;107620;1250;22514;-79
2023/04/10 05:52:05;;;;;;;98.90;58.20;;;;;;;;;;107620;1250;22521;-80
2023/04/10 05:54:32;;;;;;;87.60;52.90;;;;;;;;;;107585;1250;22524;-78
2023/04/10 05:56:58;;;;;;;95.10;56.10;;;;;;;;;;107651;1250;22636;-80
2023/04/10 05:59:25;;;;;;;85.00;51.10;;;;;;;;;;107596;1250;22482;-78
2023/04/10 06:01:51;;;;;;;101.40;60.20;;;;;;;;;;107701;1247;22607;-78
2023/04/10 06:04:17;;;;;;;108.70;61.20;;;;;;;;;;107553;1247;25417;-80
2023/04/10 06:06:44;;;;;;;96.00;56.00;;;;;;;;;;107771;1247;22554;-79
2023/04/10 06:09:10;;;;;;;113.60;67.40;;;;;;;;;;107753;1247;22515;-78
2023/04/10 06:11:36;;;;;;;127.00;70.50;;;;;;;;;;107731;1247;23007;-78
2023/04/10 06:14:03;;;;;;;132.80;79.10;;;;;;;;;;107768;1248;25214;-78
2023/04/10 06:16:29;;;;;;;131.10;84.70;;;;;;;;;;107732;1247;25302;-77
2023/04/10 06:18:56;;;;;;;119.50;70.90;;;;;;;;;;107719;1252;22541;-78
2023/04/10 06:21:23;;;;;;;120.20;65.80;;;;;;;;;;107725;1248;25396;-78
2023/04/10 06:23:50;;;;;;;103.80;56.00;;;;;;;;;;107685;1247;24079;-79
2023/04/10 06:26:16;;;;;;;95.60;52.40;;;;;;;;;;107796;1247;22528;-79
2023/04/10 06:28:43;;;;;;;95.10;54.00;;;;;;;;;;107510;1249;24163;-77
2023/04/10 06:31:10;;;;;;;99.80;56.60;;;;;;;;;;107613;1250;23596;-79
2023/04/10 06:33:37;;;;;;;103.70;58.80;;;;;;;;;;107566;1249;22540;-77
2023/04/10 06:36:03;;;;;;;120.00;67.70;;;;;;;;;;107593;1252;22550;-79
2023/04/10 06:38:29;;;;;;;133.50;76.20;;;;;;;;;;107602;1250;23035;-79
2023/04/10 06:40:57;;;;;;;132.00;78.20;;;;;;;;;;107586;1250;22605;-78
2023/04/10 06:43:23;;;;;;;146.50;86.70;;;;;;;;;;107560;1250;22614;-78
2023/04/10 06:45:49;;;;;;;130.20;80.30;;;;;;;;;;107554;1250;25255;-77
2023/04/10 06:48:16;;;;;;;121.30;70.30;;;;;;;;;;107575;1249;25383;-78
2023/04/10 06:50:42;;;;;;;119.00;66.90;;;;;;;;;;107703;1250;24209;-79
2023/04/10 06:53:08;;;;;;;116.60;68.80;;;;;;;;;;107561;1252;22530;-81
2023/04/10 06:55:36;;;;;;;122.20;68.10;;;;;;;;;;107563;1248;22614;-78
2023/04/10 06:58:02;;;;;;;99.30;56.80;;;;;;;;;;107482;1249;23910;-78
2023/04/10 07:00:29;;;;;;;99.80;57.60;;;;;;;;;;107507;1249;22529;-78
2023/04/10 07:02:56;;;;;;;107.60;59.80;;;;;;;;;;107578;1250;23269;-78
2023/04/10 07:05:22;;;;;;;87.10;51.70;;;;;;;;;;107582;1248;24229;-78
2023/04/10 07:07:49;;;;;;;100.00;57.30;;;;;;;;;;107555;1250;22514;-80
2023/04/10 07:10:16;;;;;;;112.50;61.10;;;;;;;;;;107603;1252;26033;-80
2023/04/10 07:12:42;;;;;;;108.00;64.60;;;;;;;;;;107589;1249;25211;-78
2023/04/10 07:15:11;;;;;;;112.80;66.40;;;;;;;;;;107621;1250;25217;-79
2023/04/10 07:17:37;;;;;;;108.60;67.80;;;;;;;;;;107594;1249;22478;-79
2023/04/10 07:20:04;;;;;;;103.00;58.10;;;;;;;;;;107557;1252;22537;-78
2023/04/10 07:22:31;;;;;;;97.10;58.50;;;;;;;;;;107588;1249;22518;-78
2023/04/10 07:24:58;;;;;;;100.90;60.00;;;;;;;;;;107629;1250;25478;-80
2023/04/10 07:27:24;;;;;;;116.70;67.10;;;;;;;;;;107615;1252;22561;-79
2023/04/10 07:29:53;;;;;;;101.30;62.10;;;;;;;;;;107612;1250;22677;-80
2023/04/10 07:32:19;;;;;;;94.80;57.20;;;;;;;;;;107633;1248;24177;-80
2023/04/10 07:34:46;;;;;;;95.40;56.10;;;;;;;;;;107632;1249;22547;-78
2023/04/10 07:37:12;;;;;;;110.10;66.20;;;;;;;;;;108490;1252;22618;-78
2023/04/10 07:39:39;;;;;;;135.40;80.60;;;;;;;;;;107607;1250;22678;-78
2023/04/10 07:42:05;;;;;;;141.20;83.20;;;;;;;;;;107721;1250;24187;-78
2023/04/10 07:44:31;;;;;;;138.20;79.70;;;;;;;;;;107596;1250;22911;-80
2023/04/10 07:46:58;;;;;;;130.70;80.20;;;;;;;;;;107573;1250;22591;-79
2023/04/10 07:49:24;;;;;;;152.70;93.70;;;;;;;;;;107591;1250;24216;-78
2023/04/10 07:51:51;;;;;;;211.50;129.70;;;;;;;;;;107673;1249;22530;-80
2023/04/10 07:54:17;;;;;;;225.00;143.20;;;;;;;;;;107574;1250;22534;-78
2023/04/10 07:56:43;;;;;;;217.70;137.40;;;;;;;;;;107635;1249;25424;-80
2023/04/10 07:59:10;;;;;;;211.90;131.40;;;;;;;;;;107628;1252;25230;-80
2023/04/10 08:01:36;;;;;;;252.40;159.40;;;;;;;;;;107681;1247;22531;-80
2023/04/10 08:04:03;;;;;;;242.00;152.60;;;;;;;;;;107862;1247;22530;-78
2023/04/10 08:06:31;;;;;;;203.60;131.10;;;;;;;;;;108340;1247;25396;-80
2023/04/10 08:08:57;;;;;;;194.40;119.60;;;;;;;;;;107758;1247;25487;-80
2023/04/10 08:11:25;;;;;;;182.20;115.00;;;;;;;;;;107590;1248;22527;-80
2023/04/10 08:13:55;;;;;;;140.20;86.40;;;;;;;;;;107647;1250;25329;-78
2023/04/10 08:16:22;;;;;;;134.90;81.50;;;;;;;;;;107596;1248;25367;-78
2023/04/10 08:18:48;;;;;;;141.10;84.20;;;;;;;;;;107565;1250;22536;-80
2023/04/10 08:21:15;;;;;;;126.20;79.40;;;;;;;;;;107623;1250;22632;-79
2023/04/10 08:23:41;;;;;;;129.00;77.00;;;;;;;;;;107557;1250;25363;-80
2023/04/10 08:26:07;;;;;;;129.90;81.00;;;;;;;;;;107633;1251;22957;-78
2023/04/10 08:28:35;;;;;;;134.40;83.60;;;;;;;;;;107600;1252;22530;-78
2023/04/10 08:31:01;;;;;;;142.50;87.90;;;;;;;;;;107608;1252;25419;-80
2023/04/10 08:33:27;;;;;;;149.90;97.60;;;;;;;;;;107568;1250;24190;-79
2023/04/10 08:35:54;;;;;;;146.90;93.30;;;;;;;;;;107632;1250;24362;-80
2023/04/10 08:38:22;;;;;;;157.70;94.10;;;;;;;;;;107574;1252;22525;-78
2023/04/10 08:40:49;;;;;;;166.40;104.20;;;;;;;;;;107585;1249;22667;-79
2023/04/10 08:43:15;;;;;;;146.60;93.40;;;;;;;;;;107528;1250;24626;-79
2023/04/10 08:45:42;;;;;;;141.40;88.30;;;;;;;;;;107586;1250;22554;-80
2023/04/10 08:48:09;;;;;;;130.80;82.10;;;;;;;;;;107573;1252;23136;-80
2023/04/10 08:50:35;;;;;;;128.70;85.80;;;;;;;;;;107599;1248;23142;-79
2023/04/10 08:53:04;;;;;;;137.30;82.50;;;;;;;;;;107590;1249;24212;-79
2023/04/10 08:55:31;;;;;;;130.20;78.00;;;;;;;;;;107582;1250;23248;-80
2023/04/10 08:57:57;;;;;;;118.70;78.10;;;;;;;;;;107621;1248;25387;-80
2023/04/10 09:00:23;;;;;;;119.00;67.40;;;;;;;;;;107612;1252;22657;-81
2023/04/10 09:02:54;;;;;;;112.60;67.20;;;;;;;;;;107605;1249;22530;-82
2023/04/10 09:05:20;;;;;;;104.30;60.40;;;;;;;;;;107568;1249;22520;-80
2023/04/10 09:07:46;;;;;;;96.30;55.60;;;;;;;;;;107509;1249;22518;-79
2023/04/10 09:10:13;;;;;;;94.10;56.00;;;;;;;;;;107549;1249;24229;-81
2023/04/10 09:12:43;;;;;;;117.00;73.40;;;;;;;;;;107553;1250;22643;-78
2023/04/10 09:15:10;;;;;;;90.20;52.60;;;;;;;;;;108208;1250;22518;-80
2023/04/10 09:17:37;;;;;;;84.10;52.80;;;;;;;;;;107478;1254;22520;-80
2023/04/10 09:20:04;;;;;;;92.10;50.70;;;;;;;;;;107529;1249;24278;-80
2023/04/10 09:22:31;;;;;;;81.70;43.70;;;;;;;;;;107539;1250;22538;-80
2023/04/10 09:24:58;;;;;;;76.20;39.00;;;;;;;;;;107583;1253;25343;-78
2023/04/10 09:27:30;;;;;;;80.40;45.40;;;;;;;;;;107524;1249;25318;-79
2023/04/10 09:29:56;;;;;;;102.50;64.10;;;;;;;;;;107783;1249;25507;-80
2023/04/10 09:32:41;;;;;;;118.90;70.00;;;;;;;;;;107622;1250;24228;-78
2023/04/10 09:35:11;;;;;;;115.40;58.70;;;;;;;;;;107632;1250;23079;-79
2023/04/10 09:37:39;;;;;;;109.10;53.50;;;;;;;;;;107594;1250;22531;-80
2023/04/10 09:40:06;;;;;;;89.70;50.80;;;;;;;;;;108998;1249;22471;-79
2023/04/10 09:42:33;;;;;;;89.80;49.00;;;;;;;;;;107965;1248;22649;-79
2023/04/10 09:45:00;;;;;;;72.40;37.10;;;;;;;;;;107650;1248;24378;-80
2023/04/10 09:47:27;;;;;;;76.30;36.40;;;;;;;;;;107600;1249;25350;-80
2023/04/10 09:49:54;;;;;;;81.50;40.10;;;;;;;;;;108732;1250;22393;-80
2023/04/10 09:52:22;;;;;;;104.90;50.20;;;;;;;;;;108575;1250;22520;-80
2023/04/10 09:54:48;;;;;;;85.60;41.90;;;;;;;;;;107578;1249;22872;-78
2023/04/10 09:57:15;;;;;;;103.60;51.50;;;;;;;;;;107496;1250;22561;-79
2023/04/10 09:59:42;;;;;;;101.50;58.70;;;;;;;;;;107859;1249;22565;-80
2023/04/10 10:02:08;;;;;;;129.30;80.60;;;;;;;;;;107604;1252;23349;-80
2023/04/10 10:04:35;;;;;;;88.00;43.90;;;;;;;;;;107635;1250;22516;-78
2023/04/10 10:07:01;;;;;;;104.80;52.80;;;;;;;;;;107624;1250;25319;-80
2023/04/10 10:09:27;;;;;;;125.80;69.30;;;;;;;;;;107590;1250;22989;-79
2023/04/10 10:11:54;;;;;;;101.70;60.20;;;;;;;;;;107638;1250;24248;-80
2023/04/10 10:14:20;;;;;;;146.70;89.40;;;;;;;;;;107642;1252;25317;-80
2023/04/10 10:16:49;;;;;;;209.20;137.30;;;;;;;;;;107599;1248;23016;-78
2023/04/10 10:19:19;;;;;;;89.90;45.00;;;;;;;;;;109968;1250;22408;-79
2023/04/10 10:21:45;;;;;;;95.60;53.40;;;;;;;;;;110934;1248;22360;-79
2023/04/10 10:24:12;;;;;;;108.00;56.00;;;;;;;;;;108047;1252;23262;-79
2023/04/10 10:26:38;;;;;;;177.80;101.60;;;;;;;;;;108097;1250;25243;-80
2023/04/10 10:29:06;;;;;;;106.30;55.80;;;;;;;;;;108115;1250;22655;-80
2023/04/10 10:31:32;;;;;;;110.50;56.90;;;;;;;;;;108134;1250;24228;-80
2023/04/10 10:34:03;;;;;;;106.80;56.30;;;;;;;;;;108100;1249;25337;-79
2023/04/10 10:36:30;;;;;;;95.40;42.90;;;;;;;;;;108485;1250;24282;-79
2023/04/10 10:39:00;;;;;;;89.30;44.40;;;;;;;;;;108097;1252;25912;-80
2023/04/10 10:41:28;;;;;;;99.50;49.20;;;;;;;;;;108124;1250;22536;-78
2023/04/10 10:44:10;;;;;;;101.60;48.90;;;;;;;;;;108146;1252;22549;-79
2023/04/10 10:46:41;;;;;;;90.60;43.80;;;;;;;;;;108141;1250;22542;-79
2023/04/10 10:49:07;;;;;;;113.10;65.80;;;;;;;;;;108156;1250;25370;-80
2023/04/10 10:51:41;;;;;;;115.20;55.30;;;;;;;;;;110496;1248;22264;-79
2023/04/10 10:54:26;;;;;;;104.70;56.70;;;;;;;;;;108778;1252;25354;-80
2023/04/10 10:56:53;;;;;;;91.20;49.20;;;;;;;;;;110360;1252;22674;-80
2023/04/10 10:59:39;;;;;;;93.60;47.90;;;;;;;;;;107616;1250;22564;-78
2023/04/10 11:02:11;;;;;;;92.60;41.30;;;;;;;;;;107842;1248;22532;-79
2023/04/10 11:04:41;;;;;;;81.20;37.00;;;;;;;;;;108578;1247;22269;-80
2023/04/10 11:07:07;;;;;;;132.70;76.50;;;;;;;;;;111033;1247;22300;-79
2023/04/10 11:09:53;;;;;;;125.00;68.90;;;;;;;;;;111010;1247;22209;-77
2023/04/10 11:12:20;;;;;;;110.80;57.70;;;;;;;;;;111031;1248;22364;-79
2023/04/10 11:14:57;;;;;;;93.50;46.00;;;;;;;;;;107925;1247;22616;-79
2023/04/10 11:17:45;;;;;;;88.30;46.80;;;;;;;;;;107769;1247;22573;-80
2023/04/10 11:20:11;;;;;;;83.20;39.60;;;;;;;;;;107792;1248;25371;-80
2023/04/10 11:22:56;;;;;;;80.60;38.00;;;;;;;;;;107831;1247;22669;-80
2023/04/10 11:25:26;;;;;;;85.20;46.70;;;;;;;;;;107833;1252;22535;-80
2023/04/10 11:27:52;;;;;;;87.00;43.30;;;;;;;;;;107546;1250;26463;-80
2023/04/10 11:30:26;;;;;;;94.60;49.60;;;;;;;;;;107606;1252;26603;-80
2023/04/10 11:32:53;;;;;;;120.00;63.70;;;;;;;;;;107591;1248;22641;-80
2023/04/10 11:35:20;;;;;;;107.90;56.30;;;;;;;;;;107566;1251;22646;-78
2023/04/10 11:37:46;;;;;;;115.30;58.80;;;;;;;;;;108257;1250;25408;-79
2023/04/10 11:40:13;;;;;;;130.70;68.30;;;;;;;;;;108230;1250;24328;-79
2023/04/10 11:42:39;;;;;;;110.20;56.30;;;;;;;;;;108139;1250;22531;-80
2023/04/10 11:45:22;;;;;;;145.80;80.80;;;;;;;;;;109359;1248;22130;-77
2023/04/10 11:47:52;;;;;;;129.00;74.20;;;;;;;;;;107972;1252;22531;-81
2023/04/10 11:50:19;;;;;;;107.60;55.20;;;;;;;;;;107607;1250;24403;-79
2023/04/10 11:52:48;;;;;;;109.70;67.40;;;;;;;;;;107572;1251;22622;-80
2023/04/10 11:55:15;;;;;;;135.10;75.00;;;;;;;;;;107577;1252;22546;-80
2023/04/10 11:57:43;;;;;;;105.00;55.10;;;;;;;;;;107585;1252;25391;-80
2023/04/10 12:00:09;;;;;;;89.50;44.40;;;;;;;;;;107566;1249;22548;-80
2023/04/10 12:02:48;;;;;;;98.40;55.80;;;;;;;;;;107761;1248;24115;-80
2023/04/10 12:05:15;;;;;;;79.70;43.30;;;;;;;;;;107788;1252;25483;-80
2023/04/10 12:07:41;;;;;;;93.50;43.90;;;;;;;;;;107793;1254;22546;-80
2023/04/10 12:10:07;;;;;;;85.00;43.80;;;;;;;;;;107612;1247;22631;-80
2023/04/10 12:12:35;;;;;;;76.80;36.50;;;;;;;;;;107791;1248;22524;-79
2023/04/10 12:15:02;;;;;;;100.30;50.60;;;;;;;;;;107797;1247;25153;-80
2023/04/10 12:17:28;;;;;;;91.20;50.10;;;;;;;;;;107792;1247;25319;-80
2023/04/10 12:19:55;;;;;;;91.10;48.30;;;;;;;;;;109013;1247;22498;-79
2023/04/10 12:22:21;;;;;;;73.60;38.20;;;;;;;;;;107732;1253;25331;-80
2023/04/10 12:24:49;;;;;;;74.70;36.60;;;;;;;;;;107793;1248;22579;-79
2023/04/10 12:27:16;;;;;;;69.80;37.20;;;;;;;;;;107859;1248;22707;-80
2023/04/10 12:29:43;;;;;;;94.30;51.20;;;;;;;;;;107640;1249;25469;-81
2023/04/10 12:32:09;;;;;;;99.30;54.70;;;;;;;;;;108120;1248;24220;-80
2023/04/10 12:34:36;;;;;;;80.20;47.00;;;;;;;;;;108129;1252;22637;-79
2023/04/10 12:37:03;;;;;;;74.00;39.60;;;;;;;;;;108176;1251;25317;-79
2023/04/10 12:39:29;;;;;;;77.30;40.80;;;;;;;;;;108108;1252;25708;-79
2023/04/10 12:42:14;;;;;;;88.00;47.90;;;;;;;;;;108125;1250;23207;-80
2023/04/10 12:44:54;;;;;;;83.00;46.70;;;;;;;;;;108104;1252;23030;-80
2023/04/10 12:47:21;;;;;;;72.20;37.80;;;;;;;;;;108209;1251;23285;-81
2023/04/10 12:50:06;;;;;;;58.20;34.60;;;;;;;;;;108207;1250;23312;-80
2023/04/10 12:52:33;;;;;;;67.40;38.00;;;;;;;;;;108108;1250;22605;-81
2023/04/10 12:55:12;;;;;;;58.20;34.20;;;;;;;;;;108088;1253;22536;-79
2023/04/10 12:57:39;;;;;;;378.50;204.00;;;;;;;;;;108076;1249;22539;-80
2023/04/10 13:00:08;;;;;;;147.90;82.80;;;;;;;;;;108100;1253;22521;-79
2023/04/10 13:02:35;;;;;;;87.60;47.30;;;;;;;;;;108150;1253;23271;-80
2023/04/10 13:05:02;;;;;;;87.60;47.00;;;;;;;;;;108966;1249;22748;-76
2023/04/10 13:07:29;;;;;;;74.70;42.80;;;;;;;;;;107884;1248;24209;-78
2023/04/10 13:09:55;;;;;;;184.30;88.80;;;;;;;;;;108035;1251;22639;-78
2023/04/10 13:12:22;;;;;;;78.40;44.30;;;;;;;;;;107564;1253;22540;-79
2023/04/10 13:14:49;;;;;;;211.00;110.60;;;;;;;;;;107635;1251;24251;-79
2023/04/10 13:17:15;;;;;;;85.80;46.00;;;;;;;;;;107637;1252;23194;-80
2023/04/10 13:19:41;;;;;;;67.70;40.00;;;;;;;;;;107643;1251;22647;-80
2023/04/10 13:22:07;;;;;;;64.10;35.00;;;;;;;;;;107634;1251;22522;-79
2023/04/10 13:24:35;;;;;;;516.40;279.40;;;;;;;;;;108648;1250;22299;-79
2023/04/10 13:27:02;;;;;;;191.60;98.30;;;;;;;;;;108748;1252;25837;-76
2023/04/10 13:29:28;;;;;;;81.50;45.60;;;;;;;;;;108120;1250;23039;-81
2023/04/10 13:31:54;;;;;;;129.40;63.00;;;;;;;;;;107823;1252;22528;-81
2023/04/10 13:34:21;;;;;;;126.00;65.90;;;;;;;;;;107672;1251;24216;-79
2023/04/10 13:36:47;;;;;;;81.30;42.70;;;;;;;;;;107642;1250;25224;-79
2023/04/10 13:39:13;;;;;;;101.00;60.60;;;;;;;;;;107667;1254;22554;-79
2023/04/10 13:41:40;;;;;;;73.50;47.20;;;;;;;;;;107585;1251;22914;-80
2023/04/10 13:44:06;;;;;;;62.10;36.10;;;;;;;;;;107670;1251;22540;-79
2023/04/10 13:46:33;;;;;;;66.80;37.30;;;;;;;;;;108118;1251;22567;-80
2023/04/10 13:48:59;;;;;;;142.40;77.40;;;;;;;;;;108141;1251;23255;-81
2023/04/10 13:51:26;;;;;;;160.70;74.10;;;;;;;;;;108189;1249;22541;-79
2023/04/10 13:53:53;;;;;;;248.40;101.00;;;;;;;;;;108073;1253;22714;-81
2023/04/10 13:56:19;;;;;;;79.10;44.60;;;;;;;;;;108144;1252;22557;-78
2023/04/10 13:58:45;;;;;;;68.00;41.50;;;;;;;;;;107514;1253;159577;-78
2023/04/10 14:01:12;;;;;;;59.50;37.20;;;;;;;;;;107654;1253;23265;-78